createdAt,value
2022-11-18T00:02:03.450Z,9.73
2022-11-18T00:04:32.892Z,10.15
2022-11-18T00:07:02.118Z,10.15
2022-11-18T00:09:33.489Z,10.09
2022-11-18T00:12:20.923Z,9.88
2022-11-18T00:14:49.532Z,9.91
2022-11-18T00:17:18.516Z,9.35
2022-11-18T00:19:48.244Z,9.57
2022-11-18T00:22:18.933Z,9.58
2022-11-18T00:24:47.844Z,9.47
2022-11-18T00:27:16.625Z,9.28
2022-11-18T00:29:45.453Z,9.07
2022-11-18T00:32:14.417Z,8.98
2022-11-18T00:34:46.361Z,8.87
2022-11-18T00:37:15.328Z,8.71
2022-11-18T00:39:44.251Z,8.45
2022-11-18T00:42:31.926Z,8.36
2022-11-18T00:45:04.087Z,8.22
2022-11-18T00:47:33.132Z,8.13
2022-11-18T00:50:01.907Z,8.02
2022-11-18T00:52:30.771Z,7.93
2022-11-18T00:54:59.854Z,7.77
2022-11-18T00:57:29.120Z,7.67
2022-11-18T00:59:58.092Z,7.58
2022-11-18T01:02:27.110Z,7.36
2022-11-18T01:04:56.307Z,7.34
2022-11-18T01:07:25.346Z,7.25
2022-11-18T01:09:54.455Z,7.16
2022-11-18T01:12:41.441Z,7.04
2022-11-18T01:15:10.805Z,6.94
2022-11-18T01:17:39.870Z,6.87
2022-11-18T01:20:09.421Z,6.84
2022-11-18T01:22:38.258Z,6.75
2022-11-18T01:25:07.672Z,6.66
2022-11-18T01:27:36.483Z,6.63
2022-11-18T01:30:06.112Z,6.59
2022-11-18T01:32:35.444Z,6.49
2022-11-18T01:35:04.330Z,6.48
2022-11-18T01:37:33.336Z,6.47
2022-11-18T01:40:02.392Z,6.41
2022-11-18T01:42:31.463Z,6.35
2022-11-18T01:45:11.310Z,6.29
2022-11-18T01:47:50.751Z,6.19
2022-11-18T01:50:22.978Z,6.21
2022-11-18T01:52:54.626Z,6.18
2022-11-18T01:55:30.677Z,6.14
2022-11-18T01:58:40.202Z,5.99
2022-11-18T02:01:09.736Z,6.04
2022-11-18T02:03:39.553Z,5.98
2022-11-18T02:06:14.411Z,6.00
2022-11-18T02:08:43.955Z,5.89
2022-11-18T02:11:34.356Z,5.72
2022-11-18T02:14:06.120Z,5.81
2022-11-18T02:16:44.311Z,5.81
2022-11-18T02:19:36.193Z,5.75
2022-11-18T02:22:25.667Z,5.70
2022-11-18T02:25:15.413Z,5.65
2022-11-18T02:28:30.146Z,5.69
2022-11-18T02:31:16.231Z,5.37
2022-11-18T02:33:56.431Z,5.41
2022-11-18T02:36:54.727Z,5.40
2022-11-18T02:39:38.025Z,5.42
2022-11-18T02:42:11.717Z,5.30
2022-11-18T02:44:45.089Z,5.21
2022-11-18T02:47:16.474Z,5.33
2022-11-18T02:49:55.206Z,5.32
2022-11-18T02:52:26.845Z,5.20
2022-11-18T02:54:58.345Z,5.31
2022-11-18T02:57:30.957Z,5.05
2022-11-18T03:00:05.086Z,5.07
2022-11-18T03:02:44.498Z,5.26
2022-11-18T03:05:34.187Z,5.16
2022-11-18T03:08:15.319Z,5.08
2022-11-18T03:10:53.817Z,4.98
2022-11-18T03:13:32.653Z,5.05
2022-11-18T03:16:08.091Z,4.91
2022-11-18T03:18:49.717Z,4.97
2022-11-18T03:21:44.286Z,4.91
2022-11-18T03:24:20.951Z,4.97
2022-11-18T03:27:02.059Z,4.89
2022-11-18T03:29:35.892Z,4.83
2022-11-18T03:32:12.140Z,4.70
2022-11-18T03:34:46.886Z,4.78
2022-11-18T03:37:18.194Z,4.80
2022-11-18T03:39:54.833Z,4.75
2022-11-18T03:42:31.121Z,4.69
2022-11-18T03:45:23.696Z,4.75
2022-11-18T03:48:06.519Z,4.74
2022-11-18T03:50:41.905Z,4.76
2022-11-18T03:53:13.289Z,4.64
2022-11-18T03:55:46.241Z,4.66
2022-11-18T03:58:24.535Z,4.58
2022-11-18T04:01:00.479Z,4.65
2022-11-18T04:03:29.550Z,4.46
2022-11-18T04:06:10.528Z,4.27
2022-11-18T04:08:41.390Z,4.45
2022-11-18T04:11:38.130Z,4.56
2022-11-18T04:14:09.417Z,4.56
2022-11-18T04:16:45.908Z,4.50
2022-11-18T04:19:16.606Z,4.45
2022-11-18T04:21:45.457Z,4.50
2022-11-18T04:24:14.638Z,4.53
2022-11-18T04:26:44.513Z,4.51
2022-11-18T04:29:13.476Z,4.44
2022-11-18T04:31:42.298Z,4.41
2022-11-18T04:34:11.816Z,4.39
2022-11-18T04:36:41.096Z,4.41
2022-11-18T04:39:11.049Z,4.39
2022-11-18T04:41:58.396Z,4.40
2022-11-18T04:44:30.477Z,4.32
2022-11-18T04:47:02.219Z,4.39
2022-11-18T04:49:31.593Z,4.39
2022-11-18T04:52:01.637Z,4.37
2022-11-18T04:54:33.776Z,4.36
2022-11-18T04:57:02.988Z,4.29
2022-11-18T04:59:32.403Z,4.28
2022-11-18T05:02:04.666Z,4.23
2022-11-18T05:04:35.483Z,4.20
2022-11-18T05:07:06.092Z,4.18
2022-11-18T05:09:35.738Z,3.92
2022-11-18T05:12:22.946Z,4.10
2022-11-18T05:14:51.816Z,4.06
2022-11-18T05:17:20.590Z,3.83
2022-11-18T05:19:50.373Z,3.96
2022-11-18T05:22:20.086Z,3.95
2022-11-18T05:24:49.160Z,3.86
2022-11-18T05:27:18.340Z,3.92
2022-11-18T05:29:47.181Z,3.89
2022-11-18T05:32:16.230Z,3.89
2022-11-18T05:34:45.383Z,3.69
2022-11-18T05:37:14.152Z,3.55
2022-11-18T05:39:43.172Z,3.77
2022-11-18T05:42:30.828Z,3.84
2022-11-18T05:44:59.729Z,3.81
2022-11-18T05:47:28.571Z,3.61
2022-11-18T05:49:57.385Z,3.77
2022-11-18T05:52:26.182Z,3.69
2022-11-18T05:54:55.130Z,3.68
2022-11-18T05:57:23.988Z,3.69
2022-11-18T05:59:53.443Z,3.65
2022-11-18T06:02:24.872Z,3.68
2022-11-18T06:05:00.795Z,3.73
2022-11-18T06:07:53.542Z,3.68
2022-11-18T06:10:26.929Z,3.71
2022-11-18T06:13:02.360Z,3.56
2022-11-18T06:15:39.911Z,3.58
2022-11-18T06:18:32.885Z,3.44
2022-11-18T06:21:06.661Z,3.13
2022-11-18T06:23:38.589Z,3.50
2022-11-18T06:26:10.233Z,3.52
2022-11-18T06:28:41.271Z,3.42
2022-11-18T06:31:10.278Z,3.63
2022-11-18T06:33:39.005Z,3.45
2022-11-18T06:36:08.215Z,3.60
2022-11-18T06:38:36.903Z,3.75
2022-11-18T06:41:05.952Z,3.62
2022-11-18T06:43:42.480Z,3.66
2022-11-18T06:46:32.602Z,3.65
2022-11-18T06:49:03.389Z,3.59
2022-11-18T06:51:32.295Z,3.43
2022-11-18T06:54:03.669Z,3.67
2022-11-18T06:56:35.776Z,3.64
2022-11-18T06:59:05.345Z,3.56
2022-11-18T07:01:37.950Z,3.58
2022-11-18T07:04:07.056Z,3.65
2022-11-18T07:06:37.447Z,3.65
2022-11-18T07:09:08.720Z,3.63
2022-11-18T07:11:39.059Z,3.68
2022-11-18T07:14:11.160Z,3.62
2022-11-18T07:16:40.387Z,3.60
2022-11-18T07:19:11.459Z,3.58
2022-11-18T07:21:41.275Z,3.60
2022-11-18T07:24:13.211Z,3.41
2022-11-18T07:26:42.737Z,3.42
2022-11-18T07:29:12.030Z,3.59
2022-11-18T07:31:41.594Z,3.51
2022-11-18T07:34:10.375Z,3.36
2022-11-18T07:36:39.112Z,3.49
2022-11-18T07:39:08.270Z,3.37
2022-11-18T07:41:37.334Z,3.57
2022-11-18T07:44:07.288Z,3.61
2022-11-18T07:46:38.214Z,3.62
2022-11-18T07:49:12.228Z,3.28
2022-11-18T07:51:41.739Z,3.49
2022-11-18T07:54:13.158Z,3.45
2022-11-18T07:56:42.128Z,3.29
2022-11-18T07:59:10.852Z,3.39
2022-11-18T08:01:39.774Z,3.42
2022-11-18T08:04:11.221Z,3.51
2022-11-18T08:06:41.034Z,3.45
2022-11-18T08:09:11.303Z,3.44
2022-11-18T08:11:41.674Z,3.39
2022-11-18T08:14:10.542Z,3.51
2022-11-18T08:16:39.306Z,3.56
2022-11-18T08:19:08.426Z,3.55
2022-11-18T08:21:37.119Z,3.45
2022-11-18T08:24:06.361Z,3.30
2022-11-18T08:26:35.090Z,3.12
2022-11-18T08:29:04.522Z,3.07
2022-11-18T08:31:33.271Z,3.11
2022-11-18T08:34:05.449Z,3.32
2022-11-18T08:36:36.822Z,3.31
2022-11-18T08:39:09.405Z,3.26
2022-11-18T08:41:43.970Z,3.18
2022-11-18T08:44:14.999Z,2.99
2022-11-18T08:46:48.182Z,3.18
2022-11-18T08:49:17.427Z,3.00
2022-11-18T08:51:46.395Z,3.13
2022-11-18T08:54:15.512Z,3.16
2022-11-18T08:56:44.508Z,3.17
2022-11-18T08:59:13.644Z,3.14
2022-11-18T09:01:44.357Z,3.19
2022-11-18T09:04:13.313Z,3.20
2022-11-18T09:06:42.110Z,3.10
2022-11-18T09:09:11.471Z,3.21
2022-11-18T09:11:41.232Z,3.03
2022-11-18T09:15:11.899Z,2.86
2022-11-18T09:17:02.979Z,3.04
2022-11-18T09:19:46.870Z,2.83
2022-11-18T09:22:16.497Z,2.96
2022-11-18T09:24:45.733Z,2.90
2022-11-18T09:27:17.357Z,2.80
2022-11-18T09:29:46.873Z,2.91
2022-11-18T09:32:15.743Z,3.02
2022-11-18T09:34:44.715Z,2.99
2022-11-18T09:37:13.625Z,3.04
2022-11-18T09:39:42.480Z,2.89
2022-11-18T09:42:45.889Z,2.84
2022-11-18T09:45:25.811Z,2.97
2022-11-18T09:48:02.081Z,2.80
2022-11-18T09:53:26.326Z,2.41
2022-11-18T09:55:56.565Z,2.39
2022-11-18T09:58:36.803Z,2.29
2022-11-18T10:01:18.651Z,2.52
2022-11-18T10:03:47.958Z,2.61
2022-11-18T10:06:25.889Z,2.32
2022-11-18T10:09:22.901Z,1.87
2022-11-18T10:12:03.989Z,2.32
2022-11-18T10:14:43.495Z,2.22
2022-11-18T10:17:36.226Z,2.27
2022-11-18T10:20:34.123Z,2.43
2022-11-18T10:23:34.202Z,2.46
2022-11-18T10:26:03.075Z,2.49
2022-11-18T10:28:32.272Z,2.58
2022-11-18T10:31:10.794Z,2.53
2022-11-18T10:33:40.202Z,2.69
2022-11-18T10:36:17.905Z,2.55
2022-11-18T10:38:50.216Z,2.60
2022-11-18T10:41:22.728Z,2.74
2022-11-18T10:43:54.526Z,2.73
2022-11-18T10:46:32.083Z,2.69
2022-11-18T10:49:10.184Z,2.54
2022-11-18T10:51:42.154Z,2.45
2022-11-18T10:54:20.360Z,2.65
2022-11-18T10:56:53.433Z,2.65
2022-11-18T10:59:33.495Z,2.55
2022-11-18T11:02:33.020Z,2.67
2022-11-18T11:05:20.019Z,2.64
2022-11-18T11:08:29.012Z,2.52
2022-11-18T11:10:59.855Z,2.49
2022-11-18T11:13:32.743Z,2.45
2022-11-18T11:16:06.757Z,2.46
2022-11-18T11:18:42.496Z,2.56
2022-11-18T11:21:14.862Z,2.40
2022-11-18T11:23:45.013Z,2.44
2022-11-18T11:29:20.912Z,2.35
2022-11-18T11:32:21.770Z,2.33
2022-11-18T11:35:01.215Z,2.10
2022-11-18T11:37:58.311Z,2.13
2022-11-18T11:40:30.390Z,1.92
2022-11-18T11:43:17.769Z,2.04
2022-11-18T11:46:04.864Z,2.03
2022-11-18T11:48:45.543Z,2.05
2022-11-18T11:51:57.692Z,2.14
2022-11-18T11:54:44.472Z,2.12
2022-11-18T11:57:27.625Z,2.13
2022-11-18T12:00:06.562Z,2.15
2022-11-18T12:02:49.942Z,1.82
2022-11-18T12:05:29.601Z,1.94
2022-11-18T12:08:01.371Z,1.37
2022-11-18T12:10:44.802Z,1.61
2022-11-18T12:13:37.848Z,1.25
2022-11-18T12:16:32.972Z,1.33
2022-11-18T12:19:12.199Z,1.34
2022-11-18T12:21:46.843Z,1.30
2022-11-18T12:24:18.783Z,1.34
2022-11-18T12:26:49.451Z,1.27
2022-11-18T12:29:21.504Z,1.26
2022-11-18T12:31:56.934Z,1.28
2022-11-18T12:34:45.379Z,1.15
2022-11-18T12:37:26.169Z,1.25
2022-11-18T12:43:05.334Z,1.30
2022-11-18T12:45:44.033Z,1.14
2022-11-18T12:48:27.730Z,1.22
2022-11-18T12:51:01.990Z,1.25
2022-11-18T12:53:44.264Z,1.32
2022-11-18T12:56:19.127Z,1.15
2022-11-18T12:58:59.594Z,0.97
2022-11-18T13:01:31.938Z,1.09
2022-11-18T13:04:10.978Z,0.98
2022-11-18T13:06:40.197Z,0.68
2022-11-18T13:09:36.729Z,0.66
2022-11-18T13:12:15.348Z,0.97
2022-11-18T13:15:04.057Z,0.73
2022-11-18T13:17:55.379Z,0.66
2022-11-18T13:20:34.263Z,0.82
2022-11-18T13:23:36.298Z,0.73
2022-11-18T13:26:18.707Z,0.67
2022-11-18T13:29:20.887Z,0.68
2022-11-18T13:32:23.180Z,0.78
2022-11-18T13:35:13.314Z,0.61
2022-11-18T13:38:02.408Z,0.79
2022-11-18T13:40:32.472Z,0.84
2022-11-18T13:43:01.302Z,0.88
2022-11-18T13:45:33.378Z,0.77
2022-11-18T13:48:10.358Z,0.57
2022-11-18T13:50:44.925Z,0.60
2022-11-18T13:53:31.767Z,0.37
2022-11-18T13:56:04.422Z,0.29
2022-11-18T13:58:55.600Z,0.74
2022-11-18T14:01:32.500Z,0.73
2022-11-18T14:04:48.916Z,0.65
2022-11-18T14:07:30.665Z,0.61
2022-11-18T14:10:09.673Z,0.00
2022-11-18T14:12:38.513Z,0.00
2022-11-18T14:15:22.005Z,-0.45
2022-11-18T14:17:56.926Z,-0.10
2022-11-18T14:20:27.711Z,0.06
2022-11-18T14:23:02.103Z,-0.15
2022-11-18T14:25:37.287Z,-0.01
2022-11-18T14:28:29.419Z,0.02
2022-11-18T14:31:05.014Z,0.06
2022-11-18T14:33:35.854Z,-0.15
2022-11-18T14:36:20.322Z,-0.31
2022-11-18T14:39:19.369Z,-0.23
2022-11-18T14:41:49.481Z,-0.26
2022-11-18T14:44:23.178Z,-0.29
2022-11-18T14:47:00.371Z,-0.16
2022-11-18T14:49:32.338Z,-0.36
2022-11-18T14:52:05.357Z,-0.50
2022-11-18T14:54:34.327Z,-0.43
2022-11-18T14:57:05.946Z,-0.51
2022-11-18T14:59:34.831Z,-0.43
2022-11-18T15:02:03.656Z,-0.46
2022-11-18T15:04:32.696Z,-0.74
2022-11-18T15:07:01.514Z,-0.53
2022-11-18T15:09:30.388Z,-0.53
2022-11-18T15:11:59.116Z,-0.66
2022-11-18T15:14:27.950Z,-0.77
2022-11-18T15:16:56.657Z,-0.53
2022-11-18T15:19:25.668Z,-0.67
2022-11-18T15:21:54.559Z,-0.50
2022-11-18T15:24:23.705Z,-0.33
2022-11-18T15:26:52.399Z,-0.26
2022-11-18T15:29:25.925Z,-0.24
2022-11-18T15:31:54.772Z,-0.32
2022-11-18T15:34:23.835Z,-0.31
2022-11-18T15:36:53.076Z,-0.81
2022-11-18T15:39:21.817Z,-0.77
2022-11-18T15:41:50.701Z,-0.91
2022-11-18T15:44:19.700Z,-0.78
2022-11-18T15:46:48.758Z,-0.76
2022-11-18T15:49:18.906Z,-0.87
2022-11-18T15:51:50.465Z,-0.79
2022-11-18T15:54:20.753Z,-0.84
2022-11-18T15:56:49.953Z,-0.52
2022-11-18T15:59:18.747Z,-0.66
2022-11-18T16:01:50.109Z,-0.69
2022-11-18T16:04:20.117Z,-0.74
2022-11-18T16:06:49.354Z,-0.82
2022-11-18T16:09:19.093Z,-0.81
2022-11-18T16:12:06.444Z,-0.68
2022-11-18T16:14:37.878Z,-0.64
2022-11-18T16:17:06.688Z,-0.82
2022-11-18T16:19:35.637Z,-0.78
2022-11-18T16:22:04.726Z,-0.63
2022-11-18T16:24:33.620Z,-0.54
2022-11-18T16:27:04.584Z,-0.52
2022-11-18T16:29:33.847Z,-0.62
2022-11-18T16:32:02.926Z,-0.38
2022-11-18T16:34:31.763Z,-0.58
2022-11-18T16:37:02.888Z,-0.53
2022-11-18T16:39:31.902Z,-0.44
2022-11-18T16:42:08.372Z,-0.52
2022-11-18T16:44:38.904Z,-0.59
2022-11-18T16:47:14.232Z,-0.42
2022-11-18T16:49:44.752Z,-0.27
2022-11-18T16:52:13.780Z,-0.22
2022-11-18T16:54:45.634Z,-0.31
2022-11-18T16:57:15.694Z,-0.13
2022-11-18T16:59:44.441Z,-0.10
2022-11-18T17:02:14.570Z,-0.27
2022-11-18T17:04:43.939Z,0.17
2022-11-18T17:07:13.606Z,0.23
2022-11-18T17:09:42.462Z,0.38
2022-11-18T17:12:11.335Z,0.09
2022-11-18T17:14:40.917Z,0.46
2022-11-18T17:17:09.895Z,0.50
2022-11-18T17:19:38.997Z,0.46
2022-11-18T17:22:07.915Z,0.66
2022-11-18T17:24:37.425Z,0.66
2022-11-18T17:27:06.500Z,0.88
2022-11-18T17:29:35.494Z,0.89
2022-11-18T17:32:04.316Z,0.96
2022-11-18T17:34:33.207Z,1.07
2022-11-18T17:37:06.774Z,1.21
2022-11-18T17:39:36.373Z,1.26
2022-11-18T17:42:19.940Z,1.30
2022-11-18T17:44:48.853Z,1.35
2022-11-18T17:47:17.761Z,1.34
2022-11-18T17:49:46.757Z,1.63
2022-11-18T17:52:15.776Z,1.73
2022-11-18T17:54:44.645Z,1.93
2022-11-18T17:57:13.766Z,2.06
2022-11-18T17:59:42.532Z,2.20
2022-11-18T18:02:13.320Z,2.64
2022-11-18T18:04:42.392Z,2.57
2022-11-18T18:07:11.173Z,2.88
2022-11-18T18:09:40.062Z,3.14
2022-11-18T18:12:27.095Z,3.34
2022-11-18T18:14:55.900Z,3.62
2022-11-18T18:17:24.845Z,3.82
2022-11-18T18:19:54.119Z,4.22
2022-11-18T18:22:22.871Z,4.36
2022-11-18T18:24:51.694Z,4.55
2022-11-18T18:27:21.023Z,4.68
2022-11-18T18:29:49.864Z,4.79
2022-11-18T18:32:18.560Z,5.32
2022-11-18T18:34:47.506Z,5.65
2022-11-18T18:37:16.260Z,5.92
2022-11-18T18:39:45.342Z,6.45
2022-11-18T18:42:14.449Z,6.43
2022-11-18T18:45:02.284Z,6.52
2022-11-18T18:47:31.515Z,6.88
2022-11-18T18:50:00.513Z,6.76
2022-11-18T18:52:31.545Z,7.24
2022-11-18T18:55:00.847Z,7.24
2022-11-18T18:57:30.958Z,7.31
2022-11-18T18:59:59.743Z,7.73
2022-11-18T19:02:28.755Z,8.06
2022-11-18T19:04:57.610Z,8.31
2022-11-18T19:07:28.610Z,8.50
2022-11-18T19:09:57.474Z,8.33
2022-11-18T19:12:44.643Z,8.70
2022-11-18T19:15:15.963Z,8.91
2022-11-18T19:17:46.900Z,9.06
2022-11-18T19:20:34.826Z,9.49
2022-11-18T19:23:10.552Z,9.63
2022-11-18T19:25:39.959Z,9.17
2022-11-18T19:28:12.297Z,9.80
2022-11-18T19:30:41.364Z,9.98
2022-11-18T19:33:10.269Z,9.97
2022-11-18T19:35:39.308Z,10.22
2022-11-18T19:38:08.330Z,10.12
2022-11-18T19:40:37.139Z,10.28
2022-11-18T19:43:06.012Z,9.78
2022-11-18T19:45:35.727Z,10.30
2022-11-18T19:48:06.900Z,10.41
2022-11-18T19:50:35.871Z,10.61
2022-11-18T19:53:24.482Z,10.14
2022-11-18T19:55:58.074Z,10.74
2022-11-18T19:58:29.381Z,10.85
2022-11-18T20:00:58.471Z,11.21
2022-11-18T20:03:29.220Z,11.11
2022-11-18T20:06:02.767Z,11.54
2022-11-18T20:08:34.339Z,11.63
2022-11-18T20:11:09.275Z,12.11
2022-11-18T20:13:40.057Z,12.34
2022-11-18T20:16:35.150Z,11.66
2022-11-18T20:19:10.946Z,12.09
2022-11-18T20:21:44.090Z,11.66
2022-11-18T20:24:18.484Z,11.75
2022-11-18T20:26:47.854Z,11.24
2022-11-18T20:29:18.011Z,11.93
2022-11-18T20:31:47.763Z,11.90
2022-11-18T20:34:16.616Z,11.61
2022-11-18T20:36:47.501Z,12.37
2022-11-18T20:39:17.542Z,13.17
2022-11-18T20:42:05.487Z,13.15
2022-11-18T20:44:34.511Z,12.27
2022-11-18T20:47:03.264Z,13.29
2022-11-18T20:49:32.202Z,13.46
2022-11-18T20:52:00.948Z,13.32
2022-11-18T20:54:29.755Z,13.05
2022-11-18T20:56:59.161Z,14.07
2022-11-18T20:59:28.041Z,14.11
2022-11-18T21:01:56.729Z,13.98
2022-11-18T21:04:25.540Z,14.07
2022-11-18T21:06:59.602Z,13.71
2022-11-18T21:09:32.618Z,14.08
2022-11-18T21:12:02.086Z,14.82
2022-11-18T21:14:30.899Z,13.34
2022-11-18T21:17:03.130Z,13.21
2022-11-18T21:19:34.542Z,14.14
2022-11-18T21:22:03.986Z,13.30
2022-11-18T21:24:34.930Z,13.67
2022-11-18T21:27:05.585Z,14.36
2022-11-18T21:29:35.137Z,13.27
2022-11-18T21:32:04.921Z,14.35
2022-11-18T21:34:33.948Z,15.11
2022-11-18T21:37:03.313Z,14.44
2022-11-18T21:39:33.094Z,14.15
2022-11-18T21:42:02.835Z,14.31
2022-11-18T21:44:32.504Z,14.04
2022-11-18T21:47:01.570Z,13.04
2022-11-18T21:49:31.078Z,14.93
2022-11-18T21:51:59.914Z,14.85
2022-11-18T21:54:29.299Z,15.58
2022-11-18T21:56:58.208Z,15.03
2022-11-18T21:59:27.364Z,14.06
2022-11-18T22:01:57.733Z,14.78
2022-11-18T22:04:45.375Z,14.47
2022-11-18T22:07:14.276Z,13.41
2022-11-18T22:09:43.189Z,14.07
2022-11-18T22:12:12.189Z,14.15
2022-11-18T22:14:43.607Z,12.46
2022-11-18T22:17:12.622Z,12.45
2022-11-18T22:19:41.454Z,12.10
2022-11-18T22:22:10.760Z,12.87
2022-11-18T22:24:39.641Z,13.56
2022-11-18T22:27:11.381Z,13.62
2022-11-18T22:29:40.716Z,15.03
2022-11-18T22:32:09.704Z,14.63
2022-11-18T22:34:38.597Z,14.14
2022-11-18T22:37:07.543Z,14.23
2022-11-18T22:39:36.444Z,14.73
2022-11-18T22:42:23.549Z,14.74
2022-11-18T22:44:52.665Z,14.65
2022-11-18T22:47:21.611Z,15.78
2022-11-18T22:49:55.007Z,14.43
2022-11-18T22:52:25.177Z,16.11
2022-11-18T22:54:54.110Z,14.93
2022-11-18T22:57:23.246Z,16.06
2022-11-18T22:59:53.128Z,15.89
2022-11-18T23:02:22.070Z,15.01
2022-11-18T23:04:50.985Z,14.49
2022-11-18T23:07:19.966Z,15.79
2022-11-18T23:09:48.844Z,14.97
2022-11-18T23:12:35.958Z,14.45
2022-11-18T23:15:04.750Z,14.54
2022-11-18T23:17:33.579Z,14.02
2022-11-18T23:20:02.850Z,14.09
2022-11-18T23:22:32.361Z,12.95
2022-11-18T23:25:01.465Z,12.58
2022-11-18T23:27:30.358Z,12.83
2022-11-18T23:30:01.073Z,12.00
2022-11-18T23:32:30.338Z,11.67
2022-11-18T23:34:59.430Z,11.09
2022-11-18T23:37:28.423Z,11.50
2022-11-18T23:39:57.316Z,11.67
2022-11-18T23:42:26.440Z,11.34
2022-11-18T23:45:03.760Z,10.99
2022-11-18T23:47:34.181Z,11.09
2022-11-18T23:50:03.182Z,11.11
2022-11-18T23:52:32.174Z,11.09
2022-11-18T23:55:02.204Z,11.13
2022-11-18T23:57:30.945Z,11.05
2022-11-18T23:59:59.749Z,10.99
